createdAt,value
2016-08-19T00:00:14.794Z,949.56
2016-08-19T00:01:14.819Z,949.57
2016-08-19T00:02:14.847Z,949.59
2016-08-19T00:03:14.876Z,949.55
2016-08-19T00:04:14.898Z,949.55
2016-08-19T00:05:14.928Z,949.52
2016-08-19T00:06:14.951Z,949.52
2016-08-19T00:07:14.978Z,949.52
2016-08-19T00:08:15.006Z,949.52
2016-08-19T00:09:15.031Z,949.53
2016-08-19T00:10:15.059Z,949.53
2016-08-19T00:11:15.084Z,949.5
2016-08-19T00:12:15.111Z,949.51
2016-08-19T00:13:15.145Z,949.48
2016-08-19T00:14:15.162Z,949.47
2016-08-19T00:15:15.292Z,949.48
2016-08-19T00:16:15.405Z,949.48
2016-08-19T00:17:15.275Z,949.43
2016-08-19T00:18:15.270Z,949.46
2016-08-19T00:19:15.299Z,949.43
2016-08-19T00:20:15.332Z,949.49
2016-08-19T00:21:15.383Z,949.44
2016-08-19T00:22:15.393Z,949.41
2016-08-19T00:23:15.417Z,949.47
2016-08-19T00:24:15.450Z,949.45
2016-08-19T00:25:15.459Z,949.44
2016-08-19T00:26:15.478Z,949.42
2016-08-19T00:27:15.528Z,949.42
2016-08-19T00:28:15.559Z,949.4
2016-08-19T00:29:15.597Z,949.38
2016-08-19T00:30:15.589Z,949.41
2016-08-19T00:31:15.639Z,949.39
2016-08-19T00:32:15.661Z,949.39
2016-08-19T00:33:15.666Z,949.38
2016-08-19T00:34:15.716Z,949.37
2016-08-19T00:35:15.731Z,949.39
2016-08-19T00:36:15.752Z,949.37
2016-08-19T00:37:15.771Z,949.4
2016-08-19T00:38:15.797Z,949.41
2016-08-19T00:39:15.844Z,949.43
2016-08-19T00:40:15.880Z,949.42
2016-08-19T00:41:15.877Z,949.48
2016-08-19T00:42:15.900Z,949.46
2016-08-19T00:43:15.925Z,949.42
2016-08-19T00:44:15.950Z,949.42
2016-08-19T00:45:15.979Z,949.46
2016-08-19T00:46:16.006Z,949.43
2016-08-19T00:47:16.028Z,949.45
2016-08-19T00:48:16.054Z,949.48
2016-08-19T00:49:16.079Z,949.47
2016-08-19T00:50:16.254Z,949.47
2016-08-19T00:51:16.133Z,949.5
2016-08-19T00:52:16.161Z,949.49
2016-08-19T00:53:16.190Z,949.47
2016-08-19T00:54:16.211Z,949.49
2016-08-19T00:55:16.237Z,949.46
2016-08-19T00:56:16.345Z,949.45
2016-08-19T00:57:16.289Z,949.44
2016-08-19T00:58:16.315Z,949.42
2016-08-19T00:59:16.348Z,949.39
2016-08-19T01:00:16.368Z,949.38
2016-08-19T01:01:16.396Z,949.4
2016-08-19T01:02:16.451Z,949.39
2016-08-19T01:03:16.447Z,949.39
2016-08-19T01:04:16.471Z,949.45
2016-08-19T01:05:16.499Z,949.38
2016-08-19T01:06:16.525Z,949.34
2016-08-19T01:07:16.557Z,949.36
2016-08-19T01:08:16.577Z,949.35
2016-08-19T01:09:16.603Z,949.34
2016-08-19T01:10:16.630Z,949.31
2016-08-19T01:11:16.656Z,949.32
2016-08-19T01:12:16.681Z,949.29
2016-08-19T01:13:16.709Z,949.32
2016-08-19T01:14:16.734Z,949.32
2016-08-19T01:15:16.759Z,949.33
2016-08-19T01:16:16.786Z,949.34
2016-08-19T01:17:16.812Z,949.35
2016-08-19T01:18:16.838Z,949.33
2016-08-19T01:19:16.863Z,949.31
2016-08-19T01:20:16.889Z,949.35
2016-08-19T01:21:16.915Z,949.33
2016-08-19T01:22:16.941Z,949.36
2016-08-19T01:23:16.967Z,949.39
2016-08-19T01:24:17.002Z,949.34
2016-08-19T01:25:17.020Z,949.33
2016-08-19T01:26:17.045Z,949.29
2016-08-19T01:27:17.071Z,949.32
2016-08-19T01:28:17.097Z,949.28
2016-08-19T01:29:17.123Z,949.27
2016-08-19T01:30:17.149Z,949.25
2016-08-19T01:31:17.176Z,949.29
2016-08-19T01:32:17.219Z,949.25
2016-08-19T01:33:17.226Z,949.29
2016-08-19T01:34:17.253Z,949.28
2016-08-19T01:35:17.279Z,949.29
2016-08-19T01:36:17.306Z,949.28
2016-08-19T01:37:17.331Z,949.27
2016-08-19T01:38:17.363Z,949.28
2016-08-19T01:39:17.383Z,949.29
2016-08-19T01:40:17.410Z,949.3
2016-08-19T01:41:17.436Z,949.3
2016-08-19T01:42:17.461Z,949.3
2016-08-19T01:43:17.488Z,949.29
2016-08-19T01:44:17.513Z,949.32
2016-08-19T01:45:17.540Z,949.29
2016-08-19T01:46:17.565Z,949.29
2016-08-19T01:47:17.591Z,949.27
2016-08-19T01:48:17.618Z,949.31
2016-08-19T01:49:17.644Z,949.28
2016-08-19T01:50:17.675Z,949.32
2016-08-19T01:51:17.695Z,949.33
2016-08-19T01:52:17.722Z,949.33
2016-08-19T01:53:17.747Z,949.34
2016-08-19T01:54:17.774Z,949.33
2016-08-19T01:55:17.798Z,949.36
2016-08-19T01:56:17.826Z,949.35
2016-08-19T01:57:17.851Z,949.32
2016-08-19T01:58:17.878Z,949.33
2016-08-19T01:59:17.903Z,949.35
2016-08-19T02:00:17.928Z,949.31
2016-08-19T02:01:17.954Z,949.32
2016-08-19T02:02:17.980Z,949.34
2016-08-19T02:03:18.007Z,949.34
2016-08-19T02:04:18.033Z,949.38
2016-08-19T02:05:18.058Z,949.36
2016-08-19T02:06:18.083Z,949.35
2016-08-19T02:07:18.110Z,949.32
2016-08-19T02:08:18.136Z,949.38
2016-08-19T02:09:18.162Z,949.33
2016-08-19T02:10:18.186Z,949.34
2016-08-19T02:11:18.213Z,949.34
2016-08-19T02:12:18.249Z,949.36
2016-08-19T02:13:18.266Z,949.31
2016-08-19T02:14:18.290Z,949.34
2016-08-19T02:15:18.316Z,949.31
2016-08-19T02:16:18.343Z,949.25
2016-08-19T02:17:18.367Z,949.29
2016-08-19T02:18:18.395Z,949.29
2016-08-19T02:19:18.420Z,949.29
2016-08-19T02:20:18.459Z,949.31
2016-08-19T02:21:18.471Z,949.34
2016-08-19T02:22:18.497Z,949.34
2016-08-19T02:23:18.523Z,949.34
2016-08-19T02:24:18.548Z,949.3
2016-08-19T02:25:18.575Z,949.32
2016-08-19T02:26:18.601Z,949.29
2016-08-19T02:27:18.626Z,949.32
2016-08-19T02:28:18.654Z,949.29
2016-08-19T02:29:18.678Z,949.3
2016-08-19T02:30:18.704Z,949.3
2016-08-19T02:31:18.729Z,949.3
2016-08-19T02:32:18.755Z,949.34
2016-08-19T02:33:18.781Z,949.34
2016-08-19T02:34:18.806Z,949.32
2016-08-19T02:35:18.835Z,949.31
2016-08-19T02:36:18.859Z,949.33
2016-08-19T02:37:18.885Z,949.33
2016-08-19T02:38:18.910Z,949.33
2016-08-19T02:39:18.937Z,949.34
2016-08-19T02:40:18.962Z,949.34
2016-08-19T02:41:18.988Z,949.32
2016-08-19T02:42:19.015Z,949.33
2016-08-19T02:43:19.040Z,949.31
2016-08-19T02:44:19.066Z,949.33
2016-08-19T02:45:19.093Z,949.3
2016-08-19T02:46:19.117Z,949.35
2016-08-19T02:47:19.145Z,949.32
2016-08-19T02:48:19.171Z,949.32
2016-08-19T02:49:19.196Z,949.33
2016-08-19T02:50:19.222Z,949.33
2016-08-19T02:51:19.248Z,949.33
2016-08-19T02:52:19.274Z,949.29
2016-08-19T02:53:19.300Z,949.32
2016-08-19T02:54:19.325Z,949.31
2016-08-19T02:55:19.352Z,949.27
2016-08-19T02:56:19.378Z,949.28
2016-08-19T02:57:19.413Z,949.3
2016-08-19T02:58:19.431Z,949.31
2016-08-19T02:59:19.456Z,949.33
2016-08-19T03:00:19.483Z,949.29
2016-08-19T03:01:19.507Z,949.31
2016-08-19T03:02:19.533Z,949.29
2016-08-19T03:03:19.559Z,949.29
2016-08-19T03:04:19.586Z,949.34
2016-08-19T03:05:19.612Z,949.34
2016-08-19T03:06:19.637Z,949.33
2016-08-19T03:07:19.666Z,949.3
2016-08-19T03:08:19.690Z,949.3
2016-08-19T03:09:19.716Z,949.3
2016-08-19T03:10:19.748Z,949.32
2016-08-19T03:11:19.768Z,949.33
2016-08-19T03:12:19.794Z,949.36
2016-08-19T03:13:19.820Z,949.38
2016-08-19T03:14:19.846Z,949.36
2016-08-19T03:15:19.886Z,949.35
2016-08-19T03:16:19.899Z,949.36
2016-08-19T03:17:19.925Z,949.38
2016-08-19T03:18:19.951Z,949.33
2016-08-19T03:19:19.977Z,949.36
2016-08-19T03:20:20.003Z,949.35
2016-08-19T03:21:20.030Z,949.38
2016-08-19T03:22:20.054Z,949.41
2016-08-19T03:23:20.101Z,949.4
2016-08-19T03:24:20.106Z,949.4
2016-08-19T03:25:20.133Z,949.45
2016-08-19T03:26:20.158Z,949.43
2016-08-19T03:27:20.184Z,949.43
2016-08-19T03:28:20.210Z,949.43
2016-08-19T03:29:20.236Z,949.44
2016-08-19T03:30:20.262Z,949.44
2016-08-19T03:31:20.287Z,949.44
2016-08-19T03:32:20.314Z,949.45
2016-08-19T03:33:20.340Z,949.44
2016-08-19T03:34:20.365Z,949.46
2016-08-19T03:35:20.392Z,949.44
2016-08-19T03:36:20.419Z,949.45
2016-08-19T03:37:20.443Z,949.47
2016-08-19T03:38:20.471Z,949.48
2016-08-19T03:39:20.495Z,949.42
2016-08-19T03:40:20.523Z,949.45
2016-08-19T03:41:20.548Z,949.47
2016-08-19T03:42:20.575Z,949.42
2016-08-19T03:43:20.606Z,949.44
2016-08-19T03:44:20.627Z,949.46
2016-08-19T03:45:20.651Z,949.44
2016-08-19T03:46:20.678Z,949.37
2016-08-19T03:47:20.704Z,949.38
2016-08-19T03:48:20.730Z,949.35
2016-08-19T03:49:20.756Z,949.37
2016-08-19T03:50:20.781Z,949.37
2016-08-19T03:51:20.810Z,949.37
2016-08-19T03:52:20.833Z,949.38
2016-08-19T03:53:20.859Z,949.4
2016-08-19T03:54:20.885Z,949.38
2016-08-19T03:55:20.920Z,949.4
2016-08-19T03:56:20.938Z,949.4
2016-08-19T03:57:20.963Z,949.43
2016-08-19T03:58:20.990Z,949.41
2016-08-19T03:59:21.016Z,949.43
2016-08-19T04:00:21.041Z,949.39
2016-08-19T04:01:21.066Z,949.42
2016-08-19T04:02:21.093Z,949.44
2016-08-19T04:03:21.125Z,949.47
2016-08-19T04:04:21.146Z,949.44
2016-08-19T04:05:21.176Z,949.45
2016-08-19T04:06:21.199Z,949.48
2016-08-19T04:07:21.223Z,949.44
2016-08-19T04:08:21.249Z,949.44
2016-08-19T04:09:21.275Z,949.46
2016-08-19T04:10:21.300Z,949.46
2016-08-19T04:11:21.341Z,949.43
2016-08-19T04:12:21.358Z,949.43
2016-08-19T04:13:21.380Z,949.4
2016-08-19T04:14:21.405Z,949.48
2016-08-19T04:15:21.431Z,949.44
2016-08-19T04:16:21.458Z,949.47
2016-08-19T04:17:21.484Z,949.45
2016-08-19T04:18:21.510Z,949.5
2016-08-19T04:19:21.557Z,949.48
2016-08-19T04:20:21.562Z,949.52
2016-08-19T04:21:21.587Z,949.48
2016-08-19T04:22:21.614Z,949.49
2016-08-19T04:23:21.641Z,949.48
2016-08-19T04:24:21.666Z,949.47
2016-08-19T04:25:21.698Z,949.51
2016-08-19T04:26:21.719Z,949.52
2016-08-19T04:27:21.743Z,949.51
2016-08-19T04:28:21.771Z,949.54
2016-08-19T04:29:21.796Z,949.57
2016-08-19T04:30:21.822Z,949.56
2016-08-19T04:31:21.848Z,949.53
2016-08-19T04:32:21.873Z,949.6
2016-08-19T04:33:21.901Z,949.61
2016-08-19T04:34:21.927Z,949.68
2016-08-19T04:35:21.952Z,949.65
2016-08-19T04:36:21.978Z,949.68
2016-08-19T04:37:22.003Z,949.68
2016-08-19T04:38:22.031Z,949.66
2016-08-19T04:39:22.058Z,949.67
2016-08-19T04:40:22.081Z,949.73
2016-08-19T04:41:22.109Z,949.79
2016-08-19T04:42:22.134Z,949.76
2016-08-19T04:43:22.160Z,949.82
2016-08-19T04:44:22.187Z,949.83
2016-08-19T04:45:22.213Z,949.87
2016-08-19T04:46:22.239Z,949.91
2016-08-19T04:47:22.264Z,949.87
2016-08-19T04:48:22.289Z,949.87
2016-08-19T04:49:22.316Z,949.84
2016-08-19T04:50:22.344Z,949.74
2016-08-19T04:51:22.371Z,949.73
2016-08-19T04:52:22.394Z,949.75
2016-08-19T04:53:22.421Z,949.75
2016-08-19T04:54:22.446Z,949.81
2016-08-19T04:55:22.473Z,949.76
2016-08-19T04:56:22.499Z,949.85
2016-08-19T04:57:22.525Z,949.95
2016-08-19T04:58:22.550Z,949.99
2016-08-19T04:59:22.577Z,949.96
2016-08-19T05:00:22.602Z,949.91
2016-08-19T05:01:22.627Z,949.9
2016-08-19T05:02:22.654Z,949.93
2016-08-19T05:03:22.680Z,949.94
2016-08-19T05:04:22.713Z,949.99
2016-08-19T05:05:22.731Z,949.96
2016-08-19T05:06:22.766Z,949.99
2016-08-19T05:07:22.782Z,950
2016-08-19T05:08:22.810Z,950.04
2016-08-19T05:09:22.836Z,950.01
2016-08-19T05:10:22.860Z,949.97
2016-08-19T05:11:22.886Z,950.02
2016-08-19T05:12:22.912Z,949.95
2016-08-19T05:13:22.936Z,949.98
2016-08-19T05:14:22.981Z,949.95
2016-08-19T05:15:22.993Z,949.92
2016-08-19T05:16:23.012Z,949.98
2016-08-19T05:17:23.037Z,949.99
2016-08-19T05:18:23.064Z,949.99
2016-08-19T05:19:23.089Z,950.04
2016-08-19T05:20:23.115Z,950.06
2016-08-19T05:21:23.140Z,950.04
2016-08-19T05:22:23.165Z,950
2016-08-19T05:23:23.190Z,949.98
2016-08-19T05:24:23.216Z,949.94
2016-08-19T05:25:23.241Z,949.94
2016-08-19T05:26:23.267Z,949.97
2016-08-19T05:27:23.289Z,949.98
2016-08-19T05:28:23.317Z,949.98
2016-08-19T05:29:23.342Z,949.99
2016-08-19T05:30:23.369Z,949.98
2016-08-19T05:31:23.393Z,949.99
2016-08-19T05:32:23.418Z,950.03
2016-08-19T05:33:23.444Z,950.02
2016-08-19T05:34:23.467Z,950.02
2016-08-19T05:35:23.494Z,950.03
2016-08-19T05:36:23.519Z,950.02
2016-08-19T05:37:23.557Z,950.03
2016-08-19T05:38:23.573Z,950.06
2016-08-19T05:39:23.595Z,950.06
2016-08-19T05:40:23.620Z,950.03
2016-08-19T05:41:23.646Z,950.04
2016-08-19T05:42:23.670Z,950.09
2016-08-19T05:43:23.696Z,950.1
2016-08-19T05:44:23.721Z,950.13
2016-08-19T05:45:23.829Z,950.08
2016-08-19T05:46:23.790Z,950.07
2016-08-19T05:47:23.797Z,950.1
2016-08-19T05:48:23.822Z,950.09
2016-08-19T05:49:23.847Z,950.08
2016-08-19T05:50:23.873Z,950.13
2016-08-19T05:51:23.898Z,950.15
2016-08-19T05:52:23.925Z,950.13
2016-08-19T05:53:23.948Z,950.11
2016-08-19T05:54:23.973Z,950.08
2016-08-19T05:55:23.999Z,950.08
2016-08-19T05:56:24.024Z,950.07
2016-08-19T05:57:24.049Z,950.12
2016-08-19T05:58:24.079Z,950.09
2016-08-19T05:59:24.099Z,950.1
2016-08-19T06:00:24.125Z,950.14
2016-08-19T06:01:24.150Z,950.14
2016-08-19T06:02:24.175Z,950.2
2016-08-19T06:03:24.202Z,950.22
2016-08-19T06:04:24.225Z,950.21
2016-08-19T06:05:24.251Z,950.25
2016-08-19T06:06:24.276Z,950.21
2016-08-19T06:07:24.301Z,950.2
2016-08-19T06:08:24.327Z,950.26
2016-08-19T06:09:24.352Z,950.22
2016-08-19T06:10:24.377Z,950.25
2016-08-19T06:11:24.402Z,950.26
2016-08-19T06:12:24.428Z,950.3
2016-08-19T06:13:24.453Z,950.33
2016-08-19T06:14:24.479Z,950.35
2016-08-19T06:15:24.506Z,950.38
2016-08-19T06:16:24.531Z,950.35
2016-08-19T06:17:24.563Z,950.35
2016-08-19T06:18:24.579Z,950.36
2016-08-19T06:19:24.605Z,950.29
2016-08-19T06:20:24.629Z,950.28
2016-08-19T06:21:24.655Z,950.27
2016-08-19T06:22:24.681Z,950.28
2016-08-19T06:23:24.705Z,950.3
2016-08-19T06:24:24.733Z,950.28
2016-08-19T06:25:24.781Z,950.28
2016-08-19T06:26:24.782Z,950.29
2016-08-19T06:27:24.814Z,950.3
2016-08-19T06:28:24.833Z,950.29
2016-08-19T06:29:24.857Z,950.31
2016-08-19T06:30:24.883Z,950.28
2016-08-19T06:31:24.908Z,950.26
2016-08-19T06:32:24.934Z,950.31
2016-08-19T06:33:24.959Z,950.32
2016-08-19T06:34:24.984Z,950.37
2016-08-19T06:35:25.010Z,950.35
2016-08-19T06:36:25.034Z,950.39
2016-08-19T06:37:25.061Z,950.35
2016-08-19T06:38:25.087Z,950.35
2016-08-19T06:39:25.110Z,950.43
2016-08-19T06:40:25.134Z,950.41
2016-08-19T06:41:25.166Z,950.46
2016-08-19T06:42:25.186Z,950.44
2016-08-19T06:43:25.213Z,950.45
2016-08-19T06:44:25.238Z,950.42
2016-08-19T06:45:25.262Z,950.43
2016-08-19T06:46:25.288Z,950.39
2016-08-19T06:47:25.312Z,950.39
2016-08-19T06:48:25.338Z,950.44
2016-08-19T06:49:25.370Z,950.47
2016-08-19T06:50:25.388Z,950.47
2016-08-19T06:51:25.413Z,950.44
2016-08-19T06:52:25.438Z,950.51
2016-08-19T06:53:25.463Z,950.46
2016-08-19T06:54:25.489Z,950.47
2016-08-19T06:55:25.514Z,950.47
2016-08-19T06:56:25.541Z,950.47
2016-08-19T06:57:25.586Z,950.49
2016-08-19T06:58:25.589Z,950.51
2016-08-19T06:59:25.614Z,950.48
2016-08-19T07:00:25.641Z,950.49
2016-08-19T07:01:25.664Z,950.45
2016-08-19T07:02:25.691Z,950.51
2016-08-19T07:03:25.715Z,950.51
2016-08-19T07:04:25.739Z,950.51
2016-08-19T07:05:25.767Z,950.53
2016-08-19T07:06:25.790Z,950.48
2016-08-19T07:07:25.816Z,950.48
2016-08-19T07:08:25.841Z,950.47
2016-08-19T07:09:25.865Z,950.44
2016-08-19T07:10:25.891Z,950.47
2016-08-19T07:11:25.917Z,950.5
2016-08-19T07:12:25.941Z,950.5
2016-08-19T07:13:25.969Z,950.48
2016-08-19T07:14:25.992Z,950.49
2016-08-19T07:15:26.016Z,950.49
2016-08-19T07:16:26.042Z,950.48
2016-08-19T07:17:26.067Z,950.46
2016-08-19T07:18:26.092Z,950.48
2016-08-19T07:19:26.118Z,950.51
2016-08-19T07:20:26.146Z,950.48
2016-08-19T07:21:26.170Z,950.5
2016-08-19T07:22:26.195Z,950.52
2016-08-19T07:23:26.220Z,950.5
2016-08-19T07:24:26.243Z,950.54
2016-08-19T07:25:26.270Z,950.52
2016-08-19T07:26:26.295Z,950.57
2016-08-19T07:27:26.319Z,950.5
2016-08-19T07:28:26.361Z,950.56
2016-08-19T07:29:26.370Z,950.55
2016-08-19T07:30:26.398Z,950.54
2016-08-19T07:31:26.421Z,950.53
2016-08-19T07:32:26.447Z,950.52
2016-08-19T07:33:26.472Z,950.49
2016-08-19T07:34:26.497Z,950.53
2016-08-19T07:35:26.522Z,950.53
2016-08-19T07:36:26.548Z,950.57
2016-08-19T07:37:26.574Z,950.59
2016-08-19T07:38:26.600Z,950.55
2016-08-19T07:39:26.625Z,950.57
2016-08-19T07:40:26.650Z,950.61
2016-08-19T07:41:26.675Z,950.6
2016-08-19T07:42:26.699Z,950.62
2016-08-19T07:43:26.726Z,950.59
2016-08-19T07:44:26.751Z,950.61
2016-08-19T07:45:26.776Z,950.6
2016-08-19T07:46:26.801Z,950.65
2016-08-19T07:47:26.827Z,950.63
2016-08-19T07:48:26.853Z,950.65
2016-08-19T07:49:26.878Z,950.66
2016-08-19T07:50:26.902Z,950.67
2016-08-19T07:51:26.929Z,950.65
2016-08-19T07:52:26.955Z,950.67
2016-08-19T07:53:26.979Z,950.69
2016-08-19T07:54:27.006Z,950.72
2016-08-19T07:55:27.031Z,950.73
2016-08-19T07:56:27.055Z,950.68
2016-08-19T07:57:27.096Z,950.72
2016-08-19T07:58:27.107Z,950.72
2016-08-19T07:59:27.134Z,950.74
2016-08-19T08:00:27.170Z,950.73
2016-08-19T08:01:27.185Z,950.74
2016-08-19T08:02:27.210Z,950.73
2016-08-19T08:03:27.243Z,950.75
2016-08-19T08:04:27.260Z,950.76
2016-08-19T08:05:27.287Z,950.77
2016-08-19T08:06:27.312Z,950.78
2016-08-19T08:07:27.338Z,950.77
2016-08-19T08:08:27.386Z,950.8
2016-08-19T08:09:27.388Z,950.79
2016-08-19T08:10:27.415Z,950.8
2016-08-19T08:11:27.440Z,950.78
2016-08-19T08:12:27.465Z,950.82
2016-08-19T08:13:27.492Z,950.82
2016-08-19T08:14:27.517Z,950.84
2016-08-19T08:15:27.545Z,950.82
2016-08-19T08:16:27.569Z,950.79
2016-08-19T08:17:27.595Z,950.82
2016-08-19T08:18:27.621Z,950.86
2016-08-19T08:19:27.647Z,950.82
2016-08-19T08:20:27.672Z,950.81
2016-08-19T08:21:27.697Z,950.83
2016-08-19T08:22:27.723Z,950.81
2016-08-19T08:23:27.749Z,950.86
2016-08-19T08:24:27.776Z,950.84
2016-08-19T08:25:27.801Z,950.82
2016-08-19T08:26:27.826Z,950.82
2016-08-19T08:27:27.851Z,950.85
2016-08-19T08:28:27.878Z,950.84
2016-08-19T08:29:27.905Z,950.85
2016-08-19T08:30:27.930Z,950.9
2016-08-19T08:31:27.956Z,950.91
2016-08-19T08:32:27.982Z,950.94
2016-08-19T08:33:28.008Z,950.96
2016-08-19T08:34:28.034Z,950.94
2016-08-19T08:35:28.066Z,950.96
2016-08-19T08:36:28.085Z,950.91
2016-08-19T08:37:28.110Z,950.95
2016-08-19T08:38:28.138Z,950.97
2016-08-19T08:39:28.164Z,950.94
2016-08-19T08:40:28.190Z,950.96
2016-08-19T08:41:28.215Z,950.95
2016-08-19T08:42:28.242Z,951.01
2016-08-19T08:43:28.267Z,950.96
2016-08-19T08:44:28.294Z,950.94
2016-08-19T08:45:28.321Z,950.97
2016-08-19T08:46:28.346Z,950.95
2016-08-19T08:47:28.377Z,950.91
2016-08-19T08:48:28.398Z,950.9
2016-08-19T08:49:28.430Z,950.92
2016-08-19T08:50:28.451Z,950.93
2016-08-19T08:51:28.475Z,950.97
2016-08-19T08:52:28.501Z,950.96
2016-08-19T08:53:28.528Z,951
2016-08-19T08:54:28.555Z,950.96
2016-08-19T08:55:28.593Z,950.97
2016-08-19T08:56:28.612Z,950.99
2016-08-19T08:57:28.633Z,950.95
2016-08-19T08:58:28.660Z,950.94
2016-08-19T08:59:28.685Z,950.89
2016-08-19T09:00:28.711Z,950.92
2016-08-19T09:01:28.744Z,950.92
2016-08-19T09:02:28.767Z,950.91
2016-08-19T09:03:28.809Z,950.92
2016-08-19T09:04:28.817Z,950.92
2016-08-19T09:05:28.843Z,950.91
2016-08-19T09:06:28.867Z,950.95
2016-08-19T09:07:28.895Z,950.95
2016-08-19T09:08:28.922Z,950.95
2016-08-19T09:09:28.948Z,950.92
2016-08-19T09:10:28.973Z,950.95
2016-08-19T09:11:28.999Z,950.92
2016-08-19T09:12:29.027Z,950.97
2016-08-19T09:13:29.055Z,950.97
2016-08-19T09:14:29.081Z,951.02
2016-08-19T09:15:29.108Z,950.96
2016-08-19T09:16:29.136Z,951.03
2016-08-19T09:17:29.160Z,951.03
2016-08-19T09:18:29.187Z,951.06
2016-08-19T09:19:29.213Z,951.05
2016-08-19T09:20:29.241Z,951.04
2016-08-19T09:21:29.268Z,951.03
2016-08-19T09:22:29.293Z,951.04
2016-08-19T09:23:29.323Z,951.05
2016-08-19T09:24:29.348Z,951.06
2016-08-19T09:25:29.374Z,951.1
2016-08-19T09:26:29.401Z,951.05
2016-08-19T09:27:29.428Z,951.11
2016-08-19T09:28:29.453Z,951.08
2016-08-19T09:29:29.482Z,951.1
2016-08-19T09:30:29.508Z,951.15
2016-08-19T09:31:29.537Z,951.12
2016-08-19T09:32:29.561Z,951.13
2016-08-19T09:33:29.588Z,951.12
2016-08-19T09:34:29.616Z,951.06
2016-08-19T09:35:29.643Z,951.1
2016-08-19T09:36:29.669Z,951.12
2016-08-19T09:37:29.698Z,951.08
2016-08-19T09:38:29.724Z,951.1
2016-08-19T09:39:29.752Z,951.08
2016-08-19T09:40:29.777Z,951.11
2016-08-19T09:41:29.804Z,951.08
2016-08-19T09:42:29.830Z,951.06
2016-08-19T09:43:29.859Z,951.02
2016-08-19T09:44:29.886Z,951.08
2016-08-19T09:45:29.914Z,951.05
2016-08-19T09:46:29.939Z,951.03
2016-08-19T09:47:29.966Z,951.03
2016-08-19T09:48:29.995Z,950.95
2016-08-19T09:49:30.021Z,950.96
2016-08-19T09:50:30.048Z,950.97
2016-08-19T09:51:30.073Z,950.96
2016-08-19T09:52:30.102Z,950.98
2016-08-19T09:53:30.129Z,951
2016-08-19T09:54:30.153Z,951.02
2016-08-19T09:55:30.182Z,951
2016-08-19T09:56:30.209Z,951.04
2016-08-19T09:57:30.235Z,951.03
2016-08-19T09:58:30.264Z,951.05
2016-08-19T09:59:30.290Z,951.03
2016-08-19T10:00:30.317Z,951.03
2016-08-19T10:01:30.343Z,951.02
2016-08-19T10:02:30.370Z,951.01
2016-08-19T10:03:30.397Z,951.08
2016-08-19T10:04:30.425Z,951.07
2016-08-19T10:05:30.452Z,951.05
2016-08-19T10:06:30.479Z,951.07
2016-08-19T10:07:30.507Z,951
2016-08-19T10:08:30.533Z,951
2016-08-19T10:09:30.561Z,951.01
2016-08-19T10:10:30.589Z,950.97
2016-08-19T10:11:30.616Z,950.99
2016-08-19T10:12:30.643Z,950.97
2016-08-19T10:13:30.670Z,950.97
2016-08-19T10:14:30.700Z,950.96
2016-08-19T10:15:30.725Z,950.97
2016-08-19T10:16:30.751Z,951
2016-08-19T10:17:30.791Z,951
2016-08-19T10:18:30.807Z,951
2016-08-19T10:19:30.833Z,951.02
2016-08-19T10:20:30.862Z,951.01
2016-08-19T10:21:30.889Z,950.99
2016-08-19T10:22:30.917Z,950.96
2016-08-19T10:23:30.943Z,950.97
2016-08-19T10:24:30.970Z,950.97
2016-08-19T10:25:31.000Z,950.97
2016-08-19T10:26:31.026Z,950.94
2016-08-19T10:27:31.053Z,950.95
2016-08-19T10:28:31.082Z,950.92
2016-08-19T10:29:31.110Z,950.88
2016-08-19T10:30:31.135Z,950.88
2016-08-19T10:31:31.163Z,950.85
2016-08-19T10:32:31.193Z,950.84
2016-08-19T10:33:31.219Z,950.83
2016-08-19T10:34:31.246Z,950.83
2016-08-19T10:35:31.275Z,950.83
2016-08-19T10:36:31.303Z,950.87
2016-08-19T10:37:31.330Z,950.86
2016-08-19T10:38:31.356Z,950.83
2016-08-19T10:39:31.386Z,950.82
2016-08-19T10:40:31.415Z,950.83
2016-08-19T10:41:31.440Z,950.82
2016-08-19T10:42:31.468Z,950.83
2016-08-19T10:43:31.497Z,950.85
2016-08-19T10:44:31.524Z,950.84
2016-08-19T10:45:31.552Z,950.84
2016-08-19T10:46:31.580Z,950.85
2016-08-19T10:47:31.627Z,950.83
2016-08-19T10:48:31.636Z,950.85
2016-08-19T10:49:31.665Z,950.84
2016-08-19T10:50:31.694Z,950.83
2016-08-19T10:51:31.722Z,950.81
2016-08-19T10:52:31.750Z,950.8
2016-08-19T10:53:31.777Z,950.82
2016-08-19T10:54:31.807Z,950.79
2016-08-19T10:55:31.850Z,950.79
2016-08-19T10:56:31.863Z,950.75
2016-08-19T10:57:31.892Z,950.75
2016-08-19T10:58:31.921Z,950.74
2016-08-19T10:59:31.952Z,950.77
2016-08-19T11:00:31.978Z,950.74
2016-08-19T11:01:32.006Z,950.75
2016-08-19T11:02:32.035Z,950.74
2016-08-19T11:03:32.063Z,950.74
2016-08-19T11:04:32.094Z,950.74
2016-08-19T11:05:32.120Z,950.72
2016-08-19T11:06:32.150Z,950.71
2016-08-19T11:07:32.178Z,950.7
2016-08-19T11:08:32.207Z,950.68
2016-08-19T11:09:32.236Z,950.67
2016-08-19T11:10:32.265Z,950.71
2016-08-19T11:11:32.296Z,950.66
2016-08-19T11:12:32.323Z,950.61
2016-08-19T11:13:32.352Z,950.6
2016-08-19T11:14:32.380Z,950.58
2016-08-19T11:15:32.409Z,950.58
2016-08-19T11:16:32.438Z,950.53
2016-08-19T11:17:32.468Z,950.53
2016-08-19T11:18:32.495Z,950.54
2016-08-19T11:19:32.525Z,950.53
2016-08-19T11:20:32.569Z,950.5
2016-08-19T11:21:32.582Z,950.53
2016-08-19T11:22:32.612Z,950.54
2016-08-19T11:23:32.642Z,950.5
2016-08-19T11:24:32.670Z,950.54
2016-08-19T11:25:32.700Z,950.52
2016-08-19T11:26:32.729Z,950.52
2016-08-19T11:27:32.758Z,950.51
2016-08-19T11:28:32.803Z,950.49
2016-08-19T11:29:32.816Z,950.49
2016-08-19T11:30:32.846Z,950.51
2016-08-19T11:31:32.876Z,950.45
2016-08-19T11:32:32.904Z,950.49
2016-08-19T11:33:32.933Z,950.46
2016-08-19T11:34:32.964Z,950.46
2016-08-19T11:35:32.994Z,950.47
2016-08-19T11:36:33.023Z,950.44
2016-08-19T11:37:33.057Z,950.41
2016-08-19T11:38:33.082Z,950.42
2016-08-19T11:39:33.112Z,950.43
2016-08-19T11:40:33.140Z,950.42
2016-08-19T11:41:33.171Z,950.4
2016-08-19T11:42:33.199Z,950.43
2016-08-19T11:43:33.230Z,950.43
2016-08-19T11:44:33.260Z,950.42
2016-08-19T11:45:33.291Z,950.43
2016-08-19T11:46:33.320Z,950.48
2016-08-19T11:47:33.349Z,950.47
2016-08-19T11:48:33.377Z,950.45
2016-08-19T11:49:33.408Z,950.47
2016-08-19T11:50:33.438Z,950.47
2016-08-19T11:51:33.467Z,950.42
2016-08-19T11:52:33.512Z,950.38
2016-08-19T11:53:33.527Z,950.39
2016-08-19T11:54:33.557Z,950.38
2016-08-19T11:55:33.586Z,950.4
2016-08-19T11:56:33.617Z,950.44
2016-08-19T11:57:33.647Z,950.43
2016-08-19T11:58:33.675Z,950.44
2016-08-19T11:59:33.707Z,950.44
2016-08-19T12:00:33.737Z,950.42
2016-08-19T12:01:33.766Z,950.36
2016-08-19T12:02:33.796Z,950.39
2016-08-19T12:03:33.826Z,950.35
2016-08-19T12:04:33.856Z,950.38
2016-08-19T12:05:33.886Z,950.37
2016-08-19T12:06:33.916Z,950.38
2016-08-19T12:07:33.946Z,950.34
2016-08-19T12:08:33.974Z,950.34
2016-08-19T12:09:34.006Z,950.37
2016-08-19T12:10:34.037Z,950.38
2016-08-19T12:11:34.068Z,950.3
2016-08-19T12:12:34.097Z,950.26
2016-08-19T12:13:34.128Z,950.31
2016-08-19T12:14:34.157Z,950.3
2016-08-19T12:15:34.190Z,950.3
2016-08-19T12:16:34.217Z,950.32
2016-08-19T12:17:34.255Z,950.33
2016-08-19T12:18:34.278Z,950.28
2016-08-19T12:19:34.308Z,950.27
2016-08-19T12:20:34.338Z,950.34
2016-08-19T12:21:34.369Z,950.25
2016-08-19T12:22:34.399Z,950.27
2016-08-19T12:23:34.430Z,950.28
2016-08-19T12:24:34.459Z,950.29
2016-08-19T12:25:34.492Z,950.29
2016-08-19T12:26:34.521Z,950.32
2016-08-19T12:27:34.549Z,950.31
2016-08-19T12:28:34.580Z,950.32
2016-08-19T12:29:34.613Z,950.35
2016-08-19T12:30:34.642Z,950.36
2016-08-19T12:31:34.671Z,950.4